KMEM/MEM METAR and TAF weather

Enter ICAO airport designator
Station Type Date Time Source
KMEM METAR 2021/09/24 02:54 UTC NOAA

KMEM 240254Z 00000KT 10SM CLR 17/11 A3008 RMK AO2 SLP185 T01720106 53011


Station Type Date Time Source
KMEM Decoded METAR 2021/09/24 02:54 UTC NOAA

MEMPHIS INTERNATIONAL AIRPORT , TN, United States (KMEM) 35-02N 089-59W 86M
Sep 23, 2021 - 10:54 PM EDT / 2021.09.24 0254 UTC
Wind: Calm:0
Visibility: 10 mile(s):0
Sky conditions: clear
Temperature: 63.0 F (17.2 C)
Dew Point: 51.1 F (10.6 C)
Relative Humidity: 65%
Pressure (altimeter): 30.08 in. Hg (1018 hPa)
Pressure tendency: 0.03 inches (1.1 hPa) higher than three hours ago
ob: KMEM 240254Z 00000KT 10SM CLR 17/11 A3008 RMK AO2 SLP185 T01720106 53011
cycle: 3

Station Type Date Time Source
KMEM TAF 2021/09/24 03:58 UTC NOAA

TAF
AMD KMEM 240258Z 2403/2506 VRB04KT P6SM SKC
FM241700 20006KT P6SM FEW060
FM250100 18005KT P6SM FEW250

Example: see airport list